createdAt,value
2019-02-02T00:00:20.624Z,85.90
2019-02-02T00:02:49.587Z,85.80
2019-02-02T00:05:18.188Z,85.77
2019-02-02T00:07:47.160Z,85.75
2019-02-02T00:10:15.760Z,86.09
2019-02-02T00:12:44.362Z,87.39
2019-02-02T00:15:13.309Z,86.72
2019-02-02T00:17:42.197Z,86.40
2019-02-02T00:20:11.104Z,87.15
2019-02-02T00:22:39.978Z,88.91
2019-02-02T00:25:08.573Z,89.01
2019-02-02T00:27:41.597Z,88.59
2019-02-02T00:30:11.550Z,87.75
2019-02-02T00:32:40.442Z,87.51
2019-02-02T00:35:09.436Z,87.62
2019-02-02T00:37:38.325Z,88.39
2019-02-02T00:40:12.968Z,87.80
2019-02-02T00:42:41.852Z,87.99
2019-02-02T00:45:19.790Z,87.98
2019-02-02T00:47:48.384Z,88.33
2019-02-02T00:50:17.315Z,88.33
2019-02-02T00:52:45.907Z,88.30
2019-02-02T00:55:14.543Z,87.97
2019-02-02T00:57:52.952Z,87.81
2019-02-02T01:00:12.061Z,87.79
2019-02-02T01:02:40.933Z,87.53
2019-02-02T01:05:09.567Z,87.01
2019-02-02T01:07:38.176Z,87.13
2019-02-02T01:12:45.617Z,87.81
2019-02-02T01:15:14.593Z,87.65
2019-02-02T01:17:43.581Z,87.77
2019-02-02T01:20:12.588Z,89.16
2019-02-02T01:22:41.191Z,89.61
2019-02-02T01:25:09.820Z,89.55
2019-02-02T01:27:38.420Z,89.28
2019-02-02T01:30:07.075Z,89.39
2019-02-02T01:32:35.680Z,89.76
2019-02-02T01:35:04.323Z,89.61
2019-02-02T01:37:32.901Z,90.36
2019-02-02T01:40:02.025Z,90.51
2019-02-02T01:42:30.431Z,89.68
2019-02-02T01:44:59.418Z,88.85
2019-02-02T01:47:28.309Z,88.50
2019-02-02T01:49:57.194Z,88.53
2019-02-02T01:52:25.780Z,88.45
2019-02-02T01:54:54.683Z,88.26
2019-02-02T01:57:23.275Z,88.08
2019-02-02T01:59:52.241Z,87.90
2019-02-02T02:02:21.234Z,87.72
2019-02-02T02:04:50.120Z,88.00
2019-02-02T02:07:19.047Z,87.79
2019-02-02T02:09:47.655Z,87.77
2019-02-02T02:12:16.507Z,88.90
2019-02-02T02:14:45.120Z,88.92
2019-02-02T02:17:13.711Z,89.36
2019-02-02T02:19:42.630Z,91.12
2019-02-02T02:22:11.507Z,91.46
2019-02-02T02:24:40.127Z,90.57
2019-02-02T02:27:08.722Z,90.09
2019-02-02T02:29:37.669Z,90.07
2019-02-02T02:32:06.568Z,90.48
2019-02-02T02:34:35.447Z,90.42
2019-02-02T02:37:04.037Z,90.52
2019-02-02T02:39:32.646Z,90.76
2019-02-02T02:42:01.600Z,90.61
2019-02-02T02:44:30.455Z,90.34
2019-02-02T02:46:59.383Z,91.19
2019-02-02T02:49:27.992Z,91.79
2019-02-02T02:51:56.601Z,91.34
2019-02-02T02:54:25.545Z,91.44
2019-02-02T02:56:54.163Z,91.25
2019-02-02T02:59:23.045Z,90.75
2019-02-02T03:01:51.649Z,90.68
2019-02-02T03:04:20.269Z,91.18
2019-02-02T03:06:48.866Z,91.83
2019-02-02T03:09:17.488Z,91.44
2019-02-02T03:11:46.429Z,91.47
2019-02-02T03:14:15.320Z,91.68
2019-02-02T03:16:44.037Z,91.50
2019-02-02T03:19:12.897Z,91.11
2019-02-02T03:21:43.759Z,90.70
2019-02-02T03:24:10.467Z,90.21
2019-02-02T03:26:39.090Z,89.49
2019-02-02T03:29:08.030Z,89.63
2019-02-02T03:31:36.627Z,89.49
2019-02-02T03:34:05.509Z,89.89
2019-02-02T03:36:34.127Z,89.83
2019-02-02T03:39:02.735Z,89.97
2019-02-02T03:41:31.354Z,89.99
2019-02-02T03:44:00.347Z,90.14
2019-02-02T03:46:28.965Z,90.14
2019-02-02T03:48:57.563Z,90.34
2019-02-02T03:51:26.186Z,90.70
2019-02-02T03:53:54.803Z,90.66
2019-02-02T03:56:23.426Z,90.86
2019-02-02T03:58:52.039Z,90.46
2019-02-02T04:01:20.671Z,91.38
2019-02-02T04:03:49.271Z,91.12
2019-02-02T04:06:17.897Z,91.23
2019-02-02T04:08:46.778Z,91.13
2019-02-02T04:11:15.657Z,90.81
2019-02-02T04:13:44.258Z,91.37
2019-02-02T04:16:13.136Z,92.01
2019-02-02T04:18:42.046Z,92.18
2019-02-02T04:21:10.678Z,92.26
2019-02-02T04:23:39.556Z,92.38
2019-02-02T04:26:08.486Z,91.68
2019-02-02T04:28:37.091Z,90.59
2019-02-02T04:31:05.722Z,90.73
2019-02-02T04:33:34.336Z,90.53
2019-02-02T04:36:02.942Z,90.66
2019-02-02T04:38:31.905Z,90.70
2019-02-02T04:41:00.633Z,90.28
2019-02-02T04:43:29.243Z,90.05
2019-02-02T04:45:58.157Z,90.05
2019-02-02T04:48:26.765Z,90.15
2019-02-02T04:50:55.402Z,90.39
2019-02-02T04:53:24.316Z,90.98
2019-02-02T04:55:52.925Z,91.16
2019-02-02T04:58:21.535Z,92.41
2019-02-02T05:00:50.174Z,91.95
2019-02-02T05:03:18.806Z,92.04
2019-02-02T05:05:47.443Z,91.73
2019-02-02T05:08:16.428Z,92.07
2019-02-02T05:10:45.043Z,91.82
2019-02-02T05:13:13.999Z,91.41
2019-02-02T05:15:42.981Z,91.55
2019-02-02T05:18:11.584Z,91.79
2019-02-02T05:20:40.216Z,91.28
2019-02-02T05:23:08.817Z,91.48
2019-02-02T05:25:37.458Z,91.02
2019-02-02T05:28:06.394Z,90.76
2019-02-02T05:30:35.019Z,91.71
2019-02-02T05:33:03.970Z,91.84
2019-02-02T05:35:32.859Z,91.29
2019-02-02T05:38:01.853Z,91.25
2019-02-02T05:40:30.473Z,91.14
2019-02-02T05:42:59.429Z,91.28
2019-02-02T05:45:28.043Z,92.10
2019-02-02T05:47:56.652Z,91.93
2019-02-02T05:50:25.574Z,91.41
2019-02-02T05:52:54.194Z,91.06
2019-02-02T05:55:22.820Z,91.19
2019-02-02T05:57:51.441Z,92.06
2019-02-02T06:00:20.069Z,92.49
2019-02-02T06:02:49.030Z,92.62
2019-02-02T06:05:17.885Z,92.74
2019-02-02T06:07:46.514Z,92.52
2019-02-02T06:10:15.138Z,92.81
2019-02-02T06:12:44.042Z,93.18
2019-02-02T06:15:12.675Z,93.40
2019-02-02T06:17:41.284Z,92.80
2019-02-02T06:20:09.930Z,92.37
2019-02-02T06:22:38.537Z,92.40
2019-02-02T06:25:07.166Z,92.59
2019-02-02T06:27:35.788Z,92.11
2019-02-02T06:30:10.947Z,91.57
2019-02-02T06:32:39.861Z,91.27
2019-02-02T06:35:08.891Z,91.72
2019-02-02T06:37:37.460Z,91.73
2019-02-02T06:40:06.096Z,92.04
2019-02-02T06:42:34.742Z,91.95
2019-02-02T06:45:03.366Z,91.96
2019-02-02T06:47:31.975Z,92.01
2019-02-02T06:50:00.585Z,92.35
2019-02-02T06:52:29.208Z,92.88
2019-02-02T06:54:57.798Z,93.08
2019-02-02T06:57:26.708Z,93.25
2019-02-02T06:59:55.561Z,93.23
2019-02-02T07:02:24.207Z,93.05
2019-02-02T07:04:52.806Z,92.66
2019-02-02T07:07:21.423Z,93.21
2019-02-02T07:09:50.318Z,93.35
2019-02-02T07:12:18.937Z,93.35
2019-02-02T07:14:47.535Z,93.55
2019-02-02T07:17:16.158Z,93.71
2019-02-02T07:19:44.779Z,93.64
2019-02-02T07:22:13.399Z,93.37
2019-02-02T07:24:42.326Z,93.12
2019-02-02T07:27:10.961Z,92.82
2019-02-02T07:29:39.575Z,92.57
2019-02-02T07:32:08.211Z,92.55
2019-02-02T07:34:37.067Z,92.43
2019-02-02T07:37:05.667Z,92.46
2019-02-02T07:39:34.271Z,92.38
2019-02-02T07:42:02.892Z,92.25
2019-02-02T07:44:31.802Z,92.12
2019-02-02T07:47:00.682Z,92.00
2019-02-02T07:49:29.304Z,91.80
2019-02-02T07:51:57.939Z,91.84
2019-02-02T07:54:26.840Z,91.87
2019-02-02T07:56:55.721Z,91.82
2019-02-02T07:59:24.610Z,91.88
2019-02-02T08:01:53.234Z,92.01
2019-02-02T08:04:22.187Z,91.89
2019-02-02T08:06:51.074Z,92.00
2019-02-02T08:09:20.068Z,91.83
2019-02-02T08:11:48.692Z,91.28
2019-02-02T08:14:17.641Z,91.31
2019-02-02T08:16:46.256Z,90.77
2019-02-02T08:19:15.221Z,90.90
2019-02-02T08:21:44.207Z,90.71
2019-02-02T08:24:13.192Z,90.82
2019-02-02T08:26:41.935Z,90.99
2019-02-02T08:29:10.427Z,91.10
2019-02-02T08:31:39.067Z,90.81
2019-02-02T08:34:07.695Z,90.76
2019-02-02T08:36:36.308Z,90.89
2019-02-02T08:39:05.301Z,90.74
2019-02-02T08:41:33.896Z,91.08
2019-02-02T08:44:02.856Z,91.03
2019-02-02T08:46:31.381Z,90.93
2019-02-02T08:49:00.080Z,91.04
2019-02-02T08:51:29.024Z,91.44
2019-02-02T08:53:57.924Z,91.44
2019-02-02T08:56:27.058Z,91.05
2019-02-02T08:58:55.910Z,91.10
2019-02-02T09:01:24.531Z,90.91
2019-02-02T09:03:53.174Z,90.64
2019-02-02T09:06:22.237Z,90.56
2019-02-02T09:08:50.772Z,90.24
2019-02-02T09:11:19.632Z,90.16
2019-02-02T09:13:48.614Z,90.00
2019-02-02T09:16:17.501Z,89.62
2019-02-02T09:18:46.131Z,89.73
2019-02-02T09:21:15.190Z,89.80
2019-02-02T09:23:43.864Z,90.07
2019-02-02T09:26:12.472Z,90.36
2019-02-02T09:28:41.091Z,90.34
2019-02-02T09:31:15.936Z,90.18
2019-02-02T09:33:38.346Z,90.75
2019-02-02T09:36:06.956Z,90.65
2019-02-02T09:38:35.875Z,91.63
2019-02-02T09:41:04.491Z,92.00
2019-02-02T09:43:33.108Z,91.97
2019-02-02T09:46:04.614Z,91.52
2019-02-02T09:48:30.702Z,91.51
2019-02-02T09:50:59.312Z,91.74
2019-02-02T09:53:27.966Z,91.50
2019-02-02T09:55:56.589Z,91.31
2019-02-02T09:58:25.275Z,91.04
2019-02-02T10:00:53.876Z,91.25
2019-02-02T10:03:22.502Z,91.06
2019-02-02T10:05:51.109Z,90.40
2019-02-02T10:08:19.994Z,89.96
2019-02-02T10:10:48.608Z,90.51
2019-02-02T10:13:17.236Z,90.77
2019-02-02T10:15:46.225Z,90.69
2019-02-02T10:18:14.823Z,90.45
2019-02-02T10:20:43.440Z,90.40
2019-02-02T10:23:12.389Z,91.00
2019-02-02T10:25:41.363Z,91.25
2019-02-02T10:28:10.360Z,91.63
2019-02-02T10:30:38.989Z,91.69
2019-02-02T10:33:07.653Z,91.58
2019-02-02T10:35:36.624Z,91.16
2019-02-02T10:38:05.266Z,91.20
2019-02-02T10:40:33.898Z,91.51
2019-02-02T10:43:02.516Z,91.05
2019-02-02T10:45:31.165Z,90.99
2019-02-02T10:48:00.148Z,91.59
2019-02-02T10:50:29.137Z,91.16
2019-02-02T10:52:57.760Z,91.33
2019-02-02T10:55:26.373Z,91.67
2019-02-02T10:57:54.999Z,91.45
2019-02-02T11:00:23.627Z,91.20
2019-02-02T11:02:52.519Z,91.21
2019-02-02T11:05:21.540Z,91.29
2019-02-02T11:07:50.280Z,91.58
2019-02-02T11:10:22.299Z,91.59
2019-02-02T11:12:50.898Z,91.83
2019-02-02T11:17:58.177Z,91.38
2019-02-02T11:20:30.297Z,91.78
2019-02-02T11:22:59.255Z,91.92
2019-02-02T11:25:27.946Z,92.24
2019-02-02T11:27:57.022Z,92.21
2019-02-02T11:30:25.891Z,92.29
2019-02-02T11:32:54.883Z,92.42
2019-02-02T11:35:23.570Z,92.33
2019-02-02T11:37:52.250Z,92.09
2019-02-02T11:40:21.242Z,92.18
2019-02-02T11:42:49.846Z,92.34
2019-02-02T11:45:18.548Z,92.27
2019-02-02T11:47:47.084Z,92.84
2019-02-02T11:50:15.858Z,92.49
2019-02-02T11:52:44.405Z,92.21
2019-02-02T11:55:13.084Z,91.90
2019-02-02T11:57:41.766Z,91.66
2019-02-02T12:02:51.481Z,91.83
2019-02-02T12:05:20.492Z,91.64
2019-02-02T12:07:49.235Z,91.52
2019-02-02T12:13:02.687Z,92.09
2019-02-02T12:15:32.920Z,92.09
2019-02-02T12:18:01.680Z,92.34
2019-02-02T12:20:33.148Z,92.15
2019-02-02T12:22:59.798Z,91.87
2019-02-02T12:25:28.546Z,91.54
2019-02-02T12:27:57.232Z,91.14
2019-02-02T12:30:31.867Z,91.11
2019-02-02T12:33:03.016Z,91.09
2019-02-02T12:35:29.186Z,91.18
2019-02-02T12:37:57.931Z,90.81
2019-02-02T12:40:26.654Z,91.15
2019-02-02T12:42:55.281Z,91.63
2019-02-02T12:48:02.020Z,92.26
2019-02-02T12:50:30.709Z,92.28
2019-02-02T12:52:59.357Z,92.07
2019-02-02T12:55:28.359Z,92.09
2019-02-02T12:57:57.233Z,92.12
2019-02-02T13:00:25.934Z,92.02
2019-02-02T13:02:54.605Z,91.97
2019-02-02T13:05:23.699Z,92.21
2019-02-02T13:07:52.344Z,92.45
2019-02-02T13:10:27.714Z,92.63
2019-02-02T13:12:56.420Z,92.69
2019-02-02T13:15:25.076Z,92.50
2019-02-02T13:17:53.694Z,92.45
2019-02-02T13:20:22.333Z,92.69
2019-02-02T13:22:50.951Z,92.39
2019-02-02T13:25:22.399Z,92.33
2019-02-02T13:27:51.076Z,92.47
2019-02-02T13:32:58.448Z,92.53
2019-02-02T13:35:27.100Z,92.81
2019-02-02T13:37:55.733Z,92.60
2019-02-02T13:40:24.398Z,92.52
2019-02-02T13:42:53.222Z,92.32
2019-02-02T13:45:22.213Z,92.62
2019-02-02T13:47:50.843Z,92.44
2019-02-02T13:50:19.653Z,92.35
2019-02-02T13:52:48.334Z,92.25
2019-02-02T13:55:17.039Z,92.03
2019-02-02T13:57:45.953Z,92.09
2019-02-02T14:03:02.488Z,91.62
2019-02-02T14:05:21.918Z,92.01
2019-02-02T14:07:50.798Z,91.97
2019-02-02T14:10:19.841Z,91.54
2019-02-02T14:12:48.490Z,91.80
2019-02-02T14:15:17.469Z,92.16
2019-02-02T14:17:46.197Z,91.92
2019-02-02T14:20:14.903Z,92.02
2019-02-02T14:22:43.933Z,92.45
2019-02-02T14:25:16.187Z,92.51
2019-02-02T14:27:44.906Z,92.39
2019-02-02T14:33:00.870Z,92.31
2019-02-02T14:35:29.588Z,92.18
2019-02-02T14:37:58.451Z,92.06
2019-02-02T14:40:27.546Z,92.31
2019-02-02T14:42:56.222Z,92.62
2019-02-02T14:45:27.286Z,92.79
2019-02-02T14:47:55.888Z,92.94
2019-02-02T14:50:22.995Z,92.80
2019-02-02T14:52:51.632Z,92.80
2019-02-02T14:55:23.431Z,92.58
2019-02-02T14:57:52.048Z,92.67
2019-02-02T15:00:20.708Z,92.53
2019-02-02T15:02:49.334Z,92.29
2019-02-02T15:05:17.986Z,92.29
2019-02-02T15:07:46.639Z,92.39
2019-02-02T15:10:15.286Z,92.53
2019-02-02T15:12:44.227Z,92.71
2019-02-02T15:17:51.201Z,92.78
2019-02-02T15:20:22.323Z,92.71
2019-02-02T15:22:49.039Z,92.72
2019-02-02T15:25:17.986Z,92.65
2019-02-02T15:27:46.607Z,92.70
2019-02-02T15:30:24.575Z,92.71
2019-02-02T15:32:53.213Z,93.03
2019-02-02T15:35:21.854Z,93.06
2019-02-02T15:37:50.468Z,93.12
2019-02-02T15:40:19.101Z,92.97
2019-02-02T15:42:47.991Z,92.69
2019-02-02T15:45:22.384Z,92.78
2019-02-02T15:47:51.298Z,92.59
2019-02-02T15:50:19.999Z,92.79
2019-02-02T15:52:48.635Z,92.78
2019-02-02T15:55:17.291Z,92.59
2019-02-02T15:57:46.241Z,92.71
2019-02-02T16:03:05.838Z,92.63
2019-02-02T16:05:34.823Z,92.74
2019-02-02T16:08:06.463Z,92.75
2019-02-02T16:10:35.132Z,93.04
2019-02-02T16:13:03.792Z,93.57
2019-02-02T16:15:34.243Z,93.92
2019-02-02T16:18:01.556Z,93.72
2019-02-02T16:23:11.755Z,93.15
2019-02-02T16:25:40.672Z,93.15
2019-02-02T16:28:09.310Z,92.85
2019-02-02T16:30:37.953Z,92.55
2019-02-02T16:33:06.933Z,92.56
2019-02-02T16:35:35.927Z,92.59
2019-02-02T16:38:04.577Z,92.75
2019-02-02T16:40:33.510Z,92.65
2019-02-02T16:43:02.187Z,93.15
2019-02-02T16:48:10.095Z,92.81
2019-02-02T16:50:38.887Z,92.88
2019-02-02T16:53:07.957Z,92.67
2019-02-02T16:55:36.887Z,92.67
2019-02-02T16:58:05.829Z,92.69
2019-02-02T17:00:34.741Z,92.87
2019-02-02T17:03:03.478Z,92.74
2019-02-02T17:05:32.137Z,92.78
2019-02-02T17:08:00.862Z,92.74
2019-02-02T17:10:35.393Z,92.59
2019-02-02T17:13:04.077Z,92.53
2019-02-02T17:15:33.089Z,92.50
2019-02-02T17:18:02.079Z,92.66
2019-02-02T17:20:30.805Z,92.89
2019-02-02T17:22:59.960Z,92.59
2019-02-02T17:25:28.763Z,92.76
2019-02-02T17:27:57.448Z,92.67
2019-02-02T17:30:26.414Z,92.83
2019-02-02T17:35:34.115Z,92.49
2019-02-02T17:38:02.984Z,92.69
2019-02-02T17:40:31.716Z,92.87
2019-02-02T17:43:00.385Z,92.70
2019-02-02T17:45:29.379Z,92.75
2019-02-02T17:47:58.012Z,93.03
2019-02-02T17:50:26.688Z,92.87
2019-02-02T17:52:55.359Z,93.14
2019-02-02T17:55:24.030Z,92.88
2019-02-02T17:57:53.005Z,92.83
2019-02-02T18:03:06.090Z,93.81
2019-02-02T18:05:35.133Z,94.12
2019-02-02T18:08:04.122Z,94.41
2019-02-02T18:10:33.218Z,94.26
2019-02-02T18:13:01.968Z,94.00
2019-02-02T18:15:30.840Z,93.81
2019-02-02T18:18:02.357Z,94.00
2019-02-02T18:20:28.469Z,94.29
2019-02-02T18:22:57.293Z,94.54
2019-02-02T18:25:26.352Z,94.26
2019-02-02T18:27:55.335Z,94.11
2019-02-02T18:30:27.017Z,94.06
2019-02-02T18:32:55.697Z,94.34
2019-02-02T18:35:24.435Z,94.53
2019-02-02T18:37:53.758Z,94.38
2019-02-02T18:40:22.933Z,94.38
2019-02-02T18:42:52.053Z,94.16
2019-02-02T18:48:00.232Z,94.21
2019-02-02T18:50:29.106Z,94.20
2019-02-02T18:52:58.233Z,94.44
2019-02-02T18:58:14.605Z,94.62
2019-02-02T19:00:43.769Z,94.46
2019-02-02T19:03:13.210Z,94.34
2019-02-02T19:05:42.576Z,94.16
2019-02-02T19:08:11.561Z,93.92
2019-02-02T19:10:40.523Z,93.66
2019-02-02T19:13:09.740Z,93.96
2019-02-02T19:15:38.936Z,93.85
2019-02-02T19:18:07.967Z,93.67
2019-02-02T19:20:37.112Z,93.64
2019-02-02T19:23:06.142Z,93.55
2019-02-02T19:25:35.437Z,93.67
2019-02-02T19:28:04.606Z,93.42
2019-02-02T19:30:33.593Z,93.15
2019-02-02T19:33:03.066Z,93.28
2019-02-02T19:35:32.190Z,93.20
2019-02-02T19:38:01.291Z,93.33
2019-02-02T19:40:30.466Z,93.22
2019-02-02T19:42:59.575Z,93.29
2019-02-02T19:45:29.243Z,93.34
2019-02-02T19:47:58.617Z,93.50
2019-02-02T19:50:30.648Z,93.40
2019-02-02T19:53:00.277Z,93.02
2019-02-02T19:55:29.766Z,93.07
2019-02-02T19:57:59.162Z,93.00
2019-02-02T20:00:28.366Z,93.09
2019-02-02T20:02:57.582Z,93.47
2019-02-02T20:05:29.137Z,93.52
2019-02-02T20:07:56.087Z,93.64
2019-02-02T20:10:25.494Z,93.58
2019-02-02T20:12:54.876Z,93.55
2019-02-02T20:15:23.918Z,93.57
2019-02-02T20:17:53.145Z,94.30
2019-02-02T20:20:25.431Z,94.25
2019-02-02T20:22:54.537Z,94.17
2019-02-02T20:25:23.896Z,94.57
2019-02-02T20:27:53.083Z,94.87
2019-02-02T20:30:24.892Z,95.09
2019-02-02T20:32:54.203Z,94.77
2019-02-02T20:35:23.529Z,94.56
2019-02-02T20:37:52.756Z,94.31
2019-02-02T20:40:21.981Z,94.02
2019-02-02T20:42:51.357Z,94.22
2019-02-02T20:45:20.643Z,93.98
2019-02-02T20:47:49.954Z,93.90
2019-02-02T20:50:19.458Z,93.65
2019-02-02T20:52:49.148Z,93.74
2019-02-02T20:58:00.701Z,93.88
2019-02-02T21:00:29.950Z,94.52
2019-02-02T21:02:59.447Z,94.59
2019-02-02T21:05:31.802Z,94.16
2019-02-02T21:07:58.661Z,94.10
2019-02-02T21:10:27.845Z,94.05
2019-02-02T21:12:57.066Z,94.01
2019-02-02T21:15:26.707Z,93.80
2019-02-02T21:17:56.024Z,93.98
2019-02-02T21:20:31.418Z,93.83
2019-02-02T21:23:00.403Z,94.13
2019-02-02T21:25:29.593Z,94.22
2019-02-02T21:27:58.587Z,94.29
2019-02-02T21:30:30.294Z,94.21
2019-02-02T21:32:59.634Z,94.21
2019-02-02T21:35:28.624Z,94.13
2019-02-02T21:37:57.585Z,94.30
2019-02-02T21:40:26.439Z,94.10
2019-02-02T21:42:55.348Z,94.21
2019-02-02T21:45:24.227Z,94.09
2019-02-02T21:47:52.969Z,94.02
2019-02-02T21:50:21.677Z,93.86
2019-02-02T21:52:50.619Z,93.89
2019-02-02T21:55:19.631Z,93.71
2019-02-02T21:57:48.929Z,94.01
2019-02-02T22:03:02.897Z,94.74
2019-02-02T22:05:32.190Z,94.54
2019-02-02T22:08:01.270Z,94.28
2019-02-02T22:10:30.094Z,94.19
2019-02-02T22:12:59.363Z,93.96
2019-02-02T22:15:28.158Z,94.00
2019-02-02T22:17:57.074Z,93.71
2019-02-02T22:20:26.636Z,93.67
2019-02-02T22:22:55.533Z,93.70
2019-02-02T22:28:02.649Z,93.85
2019-02-02T22:30:31.295Z,93.90
2019-02-02T22:32:59.957Z,94.01
2019-02-02T22:35:28.881Z,94.19
2019-02-02T22:37:57.907Z,94.35
2019-02-02T22:40:26.560Z,94.38
2019-02-02T22:42:55.201Z,94.26
2019-02-02T22:45:23.885Z,94.10
2019-02-02T22:47:52.502Z,94.25
2019-02-02T22:50:23.952Z,94.47
2019-02-02T22:52:52.575Z,94.34
2019-02-02T22:55:21.213Z,94.22
2019-02-02T22:57:49.831Z,94.39
2019-02-02T23:00:33.593Z,94.32
2019-02-02T23:03:02.199Z,94.08
2019-02-02T23:08:34.411Z,93.68
2019-02-02T23:11:12.103Z,93.86
2019-02-02T23:13:59.072Z,94.08
2019-02-02T23:16:27.735Z,93.87
2019-02-02T23:18:56.688Z,93.67
2019-02-02T23:21:25.345Z,93.43
2019-02-02T23:23:53.955Z,93.52
2019-02-02T23:26:22.852Z,93.40
2019-02-02T23:28:51.459Z,93.36
2019-02-02T23:31:20.151Z,93.43
2019-02-02T23:33:48.764Z,93.83
2019-02-02T23:36:17.380Z,93.63
2019-02-02T23:38:46.257Z,93.94
2019-02-02T23:41:14.860Z,94.03
2019-02-02T23:43:43.835Z,94.08
2019-02-02T23:46:12.725Z,94.25
2019-02-02T23:48:41.334Z,94.38
2019-02-02T23:51:10.291Z,94.50
2019-02-02T23:53:38.883Z,94.49
2019-02-02T23:56:07.511Z,94.71
2019-02-02T23:58:36.122Z,94.99
